createdAt,value
2019-03-17T00:00:28.766Z,52.9
2019-03-17T00:01:18.194Z,52.9
2019-03-17T00:02:08.790Z,52.9
2019-03-17T00:02:58.015Z,52.9
2019-03-17T00:03:48.683Z,52.9
2019-03-17T00:04:38.387Z,52.9
2019-03-17T00:05:28.785Z,52.8
2019-03-17T00:06:18.815Z,52.8
2019-03-17T00:07:08.612Z,52.8
2019-03-17T00:07:58.920Z,52.8
2019-03-17T00:08:48.978Z,52.8
2019-03-17T00:09:38.244Z,52.8
2019-03-17T00:10:29.380Z,52.8
2019-03-17T00:11:19.185Z,52.8
2019-03-17T00:12:08.945Z,52.8
2019-03-17T00:12:59.563Z,52.8
2019-03-17T00:13:49.637Z,52.8
2019-03-17T00:14:38.864Z,52.8
2019-03-17T00:15:29.739Z,52.8
2019-03-17T00:16:19.539Z,52.8
2019-03-17T00:17:09.394Z,52.8
2019-03-17T00:17:59.746Z,52.8
2019-03-17T00:18:49.137Z,52.8
2019-03-17T00:19:40.041Z,52.8
2019-03-17T00:20:29.822Z,52.7
2019-03-17T00:21:19.597Z,52.7
2019-03-17T00:22:10.089Z,52.7
2019-03-17T00:23:00.046Z,52.7
2019-03-17T00:23:50.334Z,52.7
2019-03-17T00:24:40.121Z,52.6
2019-03-17T00:25:30.164Z,52.7
2019-03-17T00:26:20.244Z,52.6
2019-03-17T00:27:10.614Z,52.6
2019-03-17T00:28:00.073Z,52.6
2019-03-17T00:28:50.136Z,52.6
2019-03-17T00:29:40.200Z,52.6
2019-03-17T00:30:30.795Z,52.6
2019-03-17T00:31:27.596Z,52.6
2019-03-17T00:32:10.161Z,52.6
2019-03-17T00:33:00.703Z,52.6
2019-03-17T00:33:50.503Z,52.6
2019-03-17T00:34:50.745Z,52.6
2019-03-17T00:35:30.898Z,52.6
2019-03-17T00:36:20.956Z,52.6
2019-03-17T00:37:11.282Z,52.6
2019-03-17T00:38:01.185Z,52.6
2019-03-17T00:38:50.296Z,52.5
2019-03-17T00:39:41.187Z,52.5
2019-03-17T00:40:30.993Z,52.5
2019-03-17T00:41:21.293Z,52.5
2019-03-17T00:42:11.441Z,52.5
2019-03-17T00:43:00.870Z,52.5
2019-03-17T00:43:51.793Z,52.5
2019-03-17T00:44:41.812Z,52.5
2019-03-17T00:45:31.347Z,52.4
2019-03-17T00:46:21.404Z,52.5
2019-03-17T00:47:14.210Z,52.4
2019-03-17T00:48:01.518Z,52.4
2019-03-17T00:48:51.819Z,52.4
2019-03-17T00:49:42.262Z,52.4
2019-03-17T00:50:32.241Z,52.4
2019-03-17T00:53:01.919Z,52.4
2019-03-17T00:58:52.550Z,52.3
2019-03-17T00:59:42.634Z,52.3
2019-03-17T01:00:32.402Z,52.3
2019-03-17T01:01:21.909Z,52.3
2019-03-17T01:02:12.593Z,52.3
2019-03-17T01:03:02.874Z,52.3
2019-03-17T01:03:52.917Z,52.3
2019-03-17T01:04:42.419Z,52.3
2019-03-17T01:05:34.485Z,52.3
2019-03-17T01:06:23.100Z,52.3
2019-03-17T01:07:13.513Z,52.3
2019-03-17T01:08:02.964Z,52.3
2019-03-17T01:08:52.726Z,52.3
2019-03-17T01:09:43.618Z,52.3
2019-03-17T01:10:33.404Z,52.3
2019-03-17T01:11:22.921Z,52.2
2019-03-17T01:12:13.518Z,52.2
2019-03-17T01:13:03.026Z,52.3
2019-03-17T01:13:53.084Z,52.2
2019-03-17T01:14:43.966Z,52.2
2019-03-17T01:15:34.021Z,52.2
2019-03-17T01:16:23.818Z,52.2
2019-03-17T01:17:13.621Z,52.2
2019-03-17T01:18:03.988Z,52.1
2019-03-17T01:18:53.768Z,52.2
2019-03-17T01:19:44.332Z,52.1
2019-03-17T01:20:33.831Z,52.2
2019-03-17T01:21:24.449Z,52.1
2019-03-17T01:22:14.205Z,52.1
2019-03-17T01:23:03.800Z,52.1
2019-03-17T01:23:54.373Z,52.1
2019-03-17T01:24:44.687Z,52.1
2019-03-17T01:25:34.738Z,52.1
2019-03-17T01:26:24.511Z,52.1
2019-03-17T01:27:14.851Z,52.1
2019-03-17T01:28:04.689Z,52.1
2019-03-17T01:28:54.703Z,52.1
2019-03-17T01:29:43.918Z,52.1
2019-03-17T01:30:35.095Z,52
2019-03-17T01:31:24.901Z,52
2019-03-17T01:32:14.945Z,52.1
2019-03-17T01:33:05.013Z,52
2019-03-17T01:33:54.791Z,52
2019-03-17T01:34:45.120Z,52
2019-03-17T01:35:35.850Z,52
2019-03-17T01:36:24.680Z,52
2019-03-17T01:37:14.727Z,52
2019-03-17T01:43:05.722Z,51.9
2019-03-17T01:46:26.094Z,51.9
2019-03-17T01:47:16.286Z,51.9
2019-03-17T01:48:06.075Z,51.9
2019-03-17T01:48:56.125Z,51.9
2019-03-17T01:49:45.909Z,51.9
2019-03-17T01:50:36.254Z,51.8
2019-03-17T01:51:26.314Z,51.8
2019-03-17T01:52:16.381Z,51.8
2019-03-17T01:53:06.707Z,51.8
2019-03-17T01:53:55.934Z,51.8
2019-03-17T01:54:46.567Z,51.8
2019-03-17T01:55:36.327Z,51.8
2019-03-17T01:56:25.849Z,51.8
2019-03-17T01:57:16.458Z,51.8
2019-03-17T01:58:06.784Z,51.8
2019-03-17T01:58:56.568Z,51.8
2019-03-17T01:59:46.684Z,51.8
2019-03-17T02:00:36.478Z,51.8
2019-03-17T02:01:27.084Z,51.8
2019-03-17T02:02:17.363Z,51.8
2019-03-17T02:03:06.916Z,51.8
2019-03-17T02:03:56.928Z,51.7
2019-03-17T02:04:46.710Z,51.8
2019-03-17T02:05:37.590Z,51.7
2019-03-17T02:06:27.143Z,51.7
2019-03-17T02:07:17.431Z,51.7
2019-03-17T02:08:07.208Z,51.7
2019-03-17T02:08:56.450Z,51.6
2019-03-17T02:09:47.693Z,51.6
2019-03-17T02:10:37.170Z,51.6
2019-03-17T02:11:27.458Z,51.6
2019-03-17T02:12:18.083Z,51.6
2019-03-17T02:13:07.849Z,51.6
2019-03-17T02:13:57.365Z,51.6
2019-03-17T02:14:47.460Z,51.6
2019-03-17T02:15:37.471Z,51.6
2019-03-17T02:16:28.087Z,51.6
2019-03-17T02:17:18.155Z,51.6
2019-03-17T02:18:08.222Z,51.6
2019-03-17T02:18:58.266Z,51.6
2019-03-17T02:19:48.069Z,51.6
2019-03-17T02:20:38.395Z,51.6
2019-03-17T02:21:28.724Z,51.6
2019-03-17T02:22:18.008Z,51.6
2019-03-17T02:23:07.805Z,51.5
2019-03-17T02:23:58.631Z,51.5
2019-03-17T02:24:48.697Z,51.5
2019-03-17T02:25:38.467Z,51.5
2019-03-17T02:26:28.806Z,51.5
2019-03-17T02:27:19.214Z,51.5
2019-03-17T02:28:09.269Z,51.5
2019-03-17T02:28:58.701Z,51.5
2019-03-17T02:29:49.055Z,51.4
2019-03-17T02:30:38.903Z,51.4
2019-03-17T02:31:29.230Z,51.4
2019-03-17T02:32:19.022Z,51.4
2019-03-17T02:33:08.777Z,51.4
2019-03-17T02:33:59.419Z,51.4
2019-03-17T02:34:49.175Z,51.4
2019-03-17T02:35:43.636Z,51.4
2019-03-17T02:36:29.199Z,51.4
2019-03-17T02:37:19.159Z,51.4
2019-03-17T02:38:09.683Z,51.4
2019-03-17T02:38:59.489Z,51.4
2019-03-17T02:39:49.564Z,51.4
2019-03-17T02:40:39.885Z,51.4
2019-03-17T02:41:29.359Z,51.4
2019-03-17T02:42:20.048Z,51.3
2019-03-17T02:43:10.062Z,51.3
2019-03-17T02:44:00.509Z,51.3
2019-03-17T02:44:49.945Z,51.3
2019-03-17T02:45:40.234Z,51.3
2019-03-17T02:46:30.276Z,51.3
2019-03-17T02:47:20.616Z,51.3
2019-03-17T02:48:10.129Z,51.3
2019-03-17T02:49:00.462Z,51.3
2019-03-17T02:49:50.516Z,51.3
2019-03-17T02:50:40.845Z,51.3
2019-03-17T02:51:30.341Z,51.3
2019-03-17T02:52:20.174Z,51.3
2019-03-17T02:53:10.175Z,51.2
2019-03-17T02:54:00.839Z,51.2
2019-03-17T02:54:51.148Z,51.3
2019-03-17T02:55:40.402Z,51.2
2019-03-17T02:56:30.986Z,51.2
2019-03-17T02:57:21.439Z,51.2
2019-03-17T02:58:11.146Z,51.2
2019-03-17T02:59:01.163Z,51.2
2019-03-17T02:59:50.933Z,51.2
2019-03-17T03:00:41.588Z,51.2
2019-03-17T03:01:31.621Z,51.1
2019-03-17T03:02:21.428Z,51.1
2019-03-17T03:03:11.514Z,51.1
2019-03-17T03:04:01.561Z,51.1
2019-03-17T03:07:33.168Z,51.1
2019-03-17T03:08:22.916Z,51.1
2019-03-17T03:09:12.987Z,51.1
2019-03-17T03:10:03.640Z,51.1
2019-03-17T03:10:53.222Z,51.1
2019-03-17T03:11:43.270Z,51.1
2019-03-17T03:12:33.515Z,51.1
2019-03-17T03:13:23.036Z,51
2019-03-17T03:14:13.326Z,51
2019-03-17T03:15:03.756Z,51
2019-03-17T03:15:53.496Z,51
2019-03-17T03:16:43.501Z,51
2019-03-17T03:17:33.592Z,51
2019-03-17T03:18:23.359Z,50.9
2019-03-17T03:19:13.949Z,50.9
2019-03-17T03:20:04.356Z,51
2019-03-17T03:20:54.064Z,50.9
2019-03-17T03:21:43.830Z,50.9
2019-03-17T03:22:34.333Z,50.9
2019-03-17T03:23:24.231Z,50.9
2019-03-17T03:24:14.353Z,50.9
2019-03-17T03:25:04.648Z,50.9
2019-03-17T03:25:54.172Z,50.9
2019-03-17T03:26:44.209Z,50.9
2019-03-17T03:27:34.377Z,50.9
2019-03-17T03:28:24.628Z,50.9
2019-03-17T03:29:14.682Z,50.9
2019-03-17T03:30:04.505Z,50.9
2019-03-17T03:30:54.724Z,50.9
2019-03-17T03:31:44.863Z,50.8
2019-03-17T03:32:34.974Z,50.8
2019-03-17T03:33:25.242Z,50.9
2019-03-17T03:34:15.080Z,50.8
2019-03-17T03:35:05.321Z,50.8
2019-03-17T03:36:13.081Z,50.8
2019-03-17T03:36:44.604Z,50.8
2019-03-17T03:37:35.312Z,50.8
2019-03-17T03:38:25.064Z,50.8
2019-03-17T03:39:15.425Z,50.8
2019-03-17T03:40:05.246Z,50.8
2019-03-17T03:40:55.269Z,50.8
2019-03-17T03:41:45.547Z,50.8
2019-03-17T03:42:35.323Z,50.8
2019-03-17T03:43:25.686Z,50.7
2019-03-17T03:44:15.752Z,50.7
2019-03-17T03:45:05.508Z,50.7
2019-03-17T03:45:55.012Z,50.7
2019-03-17T03:46:45.944Z,50.7
2019-03-17T03:47:35.768Z,50.7
2019-03-17T03:48:25.462Z,50.7
2019-03-17T03:49:15.844Z,50.6
2019-03-17T03:50:06.146Z,50.7
2019-03-17T03:50:55.954Z,50.7
2019-03-17T03:51:45.520Z,50.6
2019-03-17T03:52:36.055Z,50.6
2019-03-17T03:53:26.376Z,50.6
2019-03-17T03:54:16.465Z,50.6
2019-03-17T03:55:06.487Z,50.6
2019-03-17T03:55:56.018Z,50.6
2019-03-17T03:56:46.351Z,50.6
2019-03-17T03:57:36.382Z,50.6
2019-03-17T03:58:26.755Z,50.6
2019-03-17T03:59:16.241Z,50.6
2019-03-17T04:00:06.584Z,50.6
2019-03-17T04:00:56.425Z,50.6
2019-03-17T04:01:46.713Z,50.6
2019-03-17T04:02:37.127Z,50.6
2019-03-17T04:03:26.850Z,50.6
2019-03-17T04:04:16.604Z,50.5
2019-03-17T04:05:07.301Z,50.5
2019-03-17T04:05:56.975Z,50.5
2019-03-17T04:06:47.078Z,50.5
2019-03-17T04:07:37.524Z,50.5
2019-03-17T04:08:26.932Z,50.5
2019-03-17T04:09:17.494Z,50.4
2019-03-17T04:10:07.292Z,50.5
2019-03-17T04:10:57.346Z,50.4
2019-03-17T04:11:47.662Z,50.4
2019-03-17T04:12:37.154Z,50.4
2019-03-17T04:13:27.216Z,50.4
2019-03-17T04:14:17.631Z,50.4
2019-03-17T04:15:07.630Z,50.4
2019-03-17T04:15:57.954Z,50.4
2019-03-17T04:16:47.284Z,50.4
2019-03-17T04:17:38.066Z,50.4
2019-03-17T04:18:28.203Z,50.4
2019-03-17T04:19:17.951Z,50.4
2019-03-17T04:20:08.014Z,50.4
2019-03-17T04:20:58.387Z,50.4
2019-03-17T04:21:47.598Z,50.4
2019-03-17T04:22:38.197Z,50.3
2019-03-17T04:23:28.245Z,50.3
2019-03-17T04:24:18.607Z,50.3
2019-03-17T04:25:23.606Z,50.3
2019-03-17T04:25:58.673Z,50.3
2019-03-17T04:26:48.449Z,50.3
2019-03-17T04:27:38.281Z,50.3
2019-03-17T04:28:28.901Z,50.3
2019-03-17T04:29:18.632Z,50.3
2019-03-17T04:30:08.536Z,50.3
2019-03-17T04:30:59.009Z,50.3
2019-03-17T04:31:48.578Z,50.3
2019-03-17T04:32:39.129Z,50.3
2019-03-17T04:33:28.950Z,50.3
2019-03-17T04:34:18.990Z,50.3
2019-03-17T04:35:09.422Z,50.3
2019-03-17T04:35:59.376Z,50.2
2019-03-17T04:36:49.198Z,50.2
2019-03-17T04:37:39.291Z,50.2
2019-03-17T04:38:29.546Z,50.2
2019-03-17T04:39:19.075Z,50.2
2019-03-17T04:40:09.561Z,50.2
2019-03-17T04:40:59.432Z,50.2
2019-03-17T04:41:49.477Z,50.1
2019-03-17T04:42:39.264Z,50.2
2019-03-17T04:43:29.597Z,50.1
2019-03-17T04:44:25.034Z,50.1
2019-03-17T04:45:09.488Z,50.1
2019-03-17T04:46:00.117Z,50.1
2019-03-17T04:46:49.562Z,50.1
2019-03-17T04:47:40.182Z,50.1
2019-03-17T04:48:29.657Z,50.1
2019-03-17T04:49:20.309Z,50.1
2019-03-17T04:50:10.102Z,50.1
2019-03-17T04:51:00.137Z,50.1
2019-03-17T04:51:50.530Z,50.1
2019-03-17T04:52:40.527Z,50
2019-03-17T04:53:30.046Z,50.1
2019-03-17T04:54:20.637Z,50
2019-03-17T04:55:09.890Z,50
2019-03-17T04:56:00.511Z,50
2019-03-17T04:56:50.836Z,50
2019-03-17T04:57:40.682Z,50
2019-03-17T04:58:30.954Z,50
2019-03-17T04:59:21.006Z,50
2019-03-17T05:00:10.801Z,49.9
2019-03-17T05:01:00.850Z,49.9
2019-03-17T05:01:51.190Z,49.9
2019-03-17T05:02:41.245Z,49.9
2019-03-17T05:03:31.313Z,49.9
2019-03-17T05:04:20.893Z,49.9
2019-03-17T05:05:11.173Z,49.9
2019-03-17T05:06:01.483Z,49.9
2019-03-17T05:06:56.148Z,49.9
2019-03-17T05:07:41.083Z,49.9
2019-03-17T05:08:31.641Z,49.9
2019-03-17T05:09:21.706Z,49.9
2019-03-17T05:10:11.801Z,49.9
2019-03-17T05:11:00.999Z,49.9
2019-03-17T05:11:51.903Z,49.9
2019-03-17T05:12:41.680Z,49.8
2019-03-17T05:13:31.470Z,49.8
2019-03-17T05:14:22.133Z,49.8
2019-03-17T05:15:11.919Z,49.8
2019-03-17T05:16:01.898Z,49.8
2019-03-17T05:16:51.678Z,49.8
2019-03-17T05:17:42.298Z,49.8
2019-03-17T05:18:32.083Z,49.8
2019-03-17T05:19:22.136Z,49.8
2019-03-17T05:20:12.486Z,49.8
2019-03-17T05:21:02.332Z,49.8
2019-03-17T05:21:52.029Z,49.8
2019-03-17T05:22:42.122Z,49.7
2019-03-17T05:23:32.717Z,49.7
2019-03-17T05:24:22.542Z,49.7
2019-03-17T05:25:12.607Z,49.7
2019-03-17T05:26:02.900Z,49.7
2019-03-17T05:26:52.672Z,49.7
2019-03-17T05:27:42.798Z,49.6
2019-03-17T05:28:33.087Z,49.6
2019-03-17T05:29:23.154Z,49.6
2019-03-17T05:30:13.281Z,49.6
2019-03-17T05:31:02.697Z,49.6
2019-03-17T05:31:53.040Z,49.6
2019-03-17T05:32:43.119Z,49.6
2019-03-17T05:33:33.427Z,49.6
2019-03-17T05:34:23.229Z,49.6
2019-03-17T05:35:13.274Z,49.6
2019-03-17T05:36:03.359Z,49.6
2019-03-17T05:37:08.461Z,49.6
2019-03-17T05:37:43.196Z,49.5
2019-03-17T05:38:33.817Z,49.5
2019-03-17T05:39:23.324Z,49.5
2019-03-17T05:40:13.667Z,49.5
2019-03-17T05:41:03.674Z,49.5
2019-03-17T05:41:53.721Z,49.5
2019-03-17T05:42:44.779Z,49.4
2019-03-17T05:43:34.135Z,49.4
2019-03-17T05:44:24.230Z,49.4
2019-03-17T05:45:14.258Z,49.4
2019-03-17T05:46:03.799Z,49.4
2019-03-17T05:46:53.809Z,49.4
2019-03-17T05:47:44.168Z,49.4
2019-03-17T05:48:34.208Z,49.4
2019-03-17T05:49:24.271Z,49.4
2019-03-17T05:50:14.608Z,49.4
2019-03-17T05:51:04.376Z,49.4
2019-03-17T05:51:54.718Z,49.4
2019-03-17T05:52:44.496Z,49.4
2019-03-17T05:53:34.835Z,49.4
2019-03-17T05:54:24.958Z,49.4
2019-03-17T05:55:14.973Z,49.4
2019-03-17T05:56:05.058Z,49.4
2019-03-17T05:56:54.610Z,49.3
2019-03-17T05:57:44.925Z,49.3
2019-03-17T05:58:34.975Z,49.3
2019-03-17T05:59:25.013Z,49.3
2019-03-17T06:00:15.075Z,49.3
2019-03-17T06:01:04.557Z,49.3
2019-03-17T06:01:55.158Z,49.3
2019-03-17T06:02:45.200Z,49.3
2019-03-17T06:03:34.725Z,49.3
2019-03-17T06:05:32.475Z,49.3
2019-03-17T06:06:22.724Z,49.2
2019-03-17T06:07:22.338Z,49.3
2019-03-17T06:08:03.140Z,49.2
2019-03-17T06:08:53.177Z,49.2
2019-03-17T06:09:42.672Z,49.2
2019-03-17T06:10:32.725Z,49.2
2019-03-17T06:11:23.070Z,49.2
2019-03-17T06:12:12.555Z,49.2
2019-03-17T06:13:03.484Z,49.1
2019-03-17T06:13:55.292Z,49.1
2019-03-17T06:14:43.628Z,49.1
2019-03-17T06:15:33.362Z,49.1
2019-03-17T06:16:22.872Z,49.1
2019-03-17T06:17:13.484Z,49.1
2019-03-17T06:18:03.604Z,49.1
2019-03-17T06:18:53.326Z,49.1
2019-03-17T06:19:43.938Z,49.1
2019-03-17T06:20:33.706Z,49.1
2019-03-17T06:21:24.081Z,49.1
2019-03-17T06:22:13.558Z,49.1
2019-03-17T06:23:04.001Z,49
2019-03-17T06:23:53.939Z,49.1
2019-03-17T06:24:43.452Z,49
2019-03-17T06:25:34.514Z,49
2019-03-17T06:26:24.411Z,49.1
2019-03-17T06:27:14.219Z,49
2019-03-17T06:28:04.244Z,49
2019-03-17T06:28:54.391Z,49
2019-03-17T06:29:44.076Z,49
2019-03-17T06:30:34.142Z,49
2019-03-17T06:31:24.766Z,48.9
2019-03-17T06:32:14.541Z,48.9
2019-03-17T06:33:04.588Z,48.9
2019-03-17T06:33:54.921Z,48.9
2019-03-17T06:34:44.721Z,48.9
2019-03-17T06:35:34.781Z,48.9
2019-03-17T06:36:25.121Z,48.9
2019-03-17T06:37:14.336Z,48.9
2019-03-17T06:38:04.686Z,48.9
2019-03-17T06:38:55.004Z,48.9
2019-03-17T06:39:45.071Z,48.9
2019-03-17T06:40:35.135Z,48.9
2019-03-17T06:41:25.193Z,48.9
2019-03-17T06:42:15.531Z,48.9
2019-03-17T06:43:05.333Z,48.9
2019-03-17T06:43:55.639Z,48.8
2019-03-17T06:44:45.155Z,48.9
2019-03-17T06:45:35.478Z,48.8
2019-03-17T06:46:25.258Z,48.8
2019-03-17T06:47:15.376Z,48.8
2019-03-17T06:48:05.668Z,48.8
2019-03-17T06:48:56.010Z,48.8
2019-03-17T06:49:45.796Z,48.8
2019-03-17T06:50:35.277Z,48.8
2019-03-17T06:51:25.935Z,48.8
2019-03-17T06:52:15.949Z,48.8
2019-03-17T06:53:06.018Z,48.8
2019-03-17T06:54:00.610Z,48.8
2019-03-17T06:54:46.150Z,48.7
2019-03-17T06:55:36.189Z,48.7
2019-03-17T06:56:25.967Z,48.7
2019-03-17T06:57:16.042Z,48.6
2019-03-17T06:58:05.829Z,48.7
2019-03-17T06:58:56.434Z,48.6
2019-03-17T06:59:46.230Z,48.6
2019-03-17T07:00:36.550Z,48.6
2019-03-17T07:01:26.905Z,48.6
2019-03-17T07:02:16.947Z,48.6
2019-03-17T07:03:06.737Z,48.6
2019-03-17T07:05:32.604Z,48.5
2019-03-17T07:06:22.668Z,48.5
2019-03-17T07:07:12.712Z,48.5
2019-03-17T07:08:03.291Z,48.5
2019-03-17T07:08:53.104Z,48.5
2019-03-17T07:09:42.884Z,48.5
2019-03-17T07:10:32.411Z,48.4
2019-03-17T07:11:23.084Z,48.4
2019-03-17T07:12:12.604Z,48.4
2019-03-17T07:13:03.416Z,48.4
2019-03-17T07:13:53.234Z,48.4
2019-03-17T07:14:43.545Z,48.4
2019-03-17T07:15:33.602Z,48.4
2019-03-17T07:16:23.143Z,48.4
2019-03-17T07:17:12.866Z,48.4
2019-03-17T07:18:03.293Z,48.4
2019-03-17T07:18:53.544Z,48.4
2019-03-17T07:19:43.362Z,48.4
2019-03-17T07:20:33.683Z,48.4
2019-03-17T07:21:23.719Z,48.4
2019-03-17T07:22:14.068Z,48.3
2019-03-17T07:23:03.846Z,48.3
2019-03-17T07:23:54.197Z,48.3
2019-03-17T07:24:43.421Z,48.3
2019-03-17T07:25:33.474Z,48.3
2019-03-17T07:26:24.099Z,48.3
2019-03-17T07:27:13.427Z,48.3
2019-03-17T07:28:04.211Z,48.3
2019-03-17T07:28:54.486Z,48.3
2019-03-17T07:29:44.609Z,48.3
2019-03-17T07:30:34.386Z,48.3
2019-03-17T07:31:24.475Z,48.3
2019-03-17T07:32:14.775Z,48.3
2019-03-17T07:33:04.568Z,48.3
2019-03-17T07:33:54.915Z,48.3
2019-03-17T07:34:44.975Z,48.2
2019-03-17T07:35:34.755Z,48.2
2019-03-17T07:36:25.083Z,48.3
2019-03-17T07:37:15.140Z,48.2
2019-03-17T07:38:05.187Z,48.2
2019-03-17T07:38:54.720Z,48.2
2019-03-17T07:39:44.761Z,48.1
2019-03-17T07:40:34.903Z,48.1
2019-03-17T07:41:25.627Z,48.1
2019-03-17T07:42:15.222Z,48.1
2019-03-17T07:43:05.294Z,48.1
2019-03-17T07:44:45.659Z,48.1
2019-03-17T07:45:35.472Z,48.1
2019-03-17T07:46:40.189Z,48.1
2019-03-17T07:47:15.661Z,48.1
2019-03-17T07:48:05.924Z,48.1
2019-03-17T07:48:55.771Z,48.1
2019-03-17T07:49:46.042Z,48.1
2019-03-17T07:50:35.104Z,48.1
2019-03-17T07:51:25.898Z,48.1
2019-03-17T07:52:15.954Z,48.1
2019-03-17T07:53:05.717Z,48.1
2019-03-17T07:53:55.781Z,48
2019-03-17T07:54:46.131Z,48
2019-03-17T07:55:35.967Z,48
2019-03-17T07:56:26.523Z,48
2019-03-17T07:57:15.754Z,48
2019-03-17T07:58:06.622Z,48
2019-03-17T07:58:56.473Z,48
2019-03-17T07:59:46.471Z,47.9
2019-03-17T08:00:36.519Z,47.9
2019-03-17T08:01:26.873Z,47.9
2019-03-17T08:02:15.914Z,47.9
2019-03-17T08:03:06.549Z,47.9
2019-03-17T08:03:57.046Z,47.9
2019-03-17T08:04:50.187Z,47.9
2019-03-17T08:05:36.621Z,47.9
2019-03-17T08:06:27.268Z,47.9
2019-03-17T08:07:19.305Z,47.9
2019-03-17T08:08:13.242Z,47.9
2019-03-17T08:08:57.424Z,47.9
2019-03-17T08:09:47.513Z,47.9
2019-03-17T08:10:37.261Z,47.9
2019-03-17T08:11:27.583Z,47.9
2019-03-17T08:12:17.080Z,47.9
2019-03-17T08:13:07.429Z,47.9
2019-03-17T08:13:57.481Z,47.8
2019-03-17T08:14:47.538Z,47.9
2019-03-17T08:15:37.452Z,47.8
2019-03-17T08:16:27.668Z,47.8
2019-03-17T08:17:17.717Z,47.8
2019-03-17T08:18:07.505Z,47.8
2019-03-17T08:18:57.870Z,47.8
2019-03-17T08:19:47.970Z,47.8
2019-03-17T08:20:37.945Z,47.7
2019-03-17T08:21:28.280Z,47.6
2019-03-17T08:22:18.383Z,47.6
2019-03-17T08:23:08.438Z,47.6
2019-03-17T10:06:31.444Z,55.9
2019-03-17T10:07:21.794Z,56
2019-03-17T10:08:12.857Z,56
2019-03-17T10:09:03.843Z,56
2019-03-17T10:09:52.691Z,56.1
2019-03-17T10:10:42.721Z,56.1
2019-03-17T10:11:32.350Z,56.1
2019-03-17T10:12:22.664Z,56.1
2019-03-17T10:13:13.244Z,56.1
2019-03-17T10:14:02.706Z,56.1
2019-03-17T10:14:53.334Z,56.1
2019-03-17T10:15:42.834Z,56.1
2019-03-17T10:16:33.186Z,56.1
2019-03-17T10:17:23.076Z,56.2
2019-03-17T10:18:13.631Z,56.2
2019-03-17T10:19:03.634Z,56.2
2019-03-17T10:19:52.653Z,56.2
2019-03-17T10:20:41.992Z,56.2
2019-03-17T10:21:33.616Z,56.2
2019-03-17T10:22:23.881Z,56.2
2019-03-17T10:23:13.373Z,56.2
2019-03-17T10:24:03.736Z,56.2
2019-03-17T10:24:54.025Z,56.2
2019-03-17T10:25:44.160Z,56.3
2019-03-17T10:26:33.325Z,56.3
2019-03-17T10:27:24.260Z,56.3
2019-03-17T10:28:14.043Z,56.3
2019-03-17T10:29:03.801Z,56.3
2019-03-17T10:29:54.385Z,56.3
2019-03-17T10:30:44.467Z,56.3
2019-03-17T10:31:34.528Z,56.3
2019-03-17T10:32:24.578Z,56.4
2019-03-17T10:33:14.642Z,56.4
2019-03-17T10:34:04.468Z,56.4
2019-03-17T10:34:54.357Z,56.4
2019-03-17T10:35:44.824Z,56.4
2019-03-17T10:36:34.615Z,56.5
2019-03-17T10:37:24.695Z,56.5
2019-03-17T10:38:15.000Z,56.6
2019-03-17T10:39:16.092Z,56.6
2019-03-17T10:39:55.110Z,56.6
2019-03-17T10:40:44.735Z,56.6
2019-03-17T10:41:34.207Z,56.7
2019-03-17T10:42:25.030Z,56.7
2019-03-17T10:43:15.389Z,56.8
2019-03-17T10:44:05.427Z,56.8
2019-03-17T10:44:54.653Z,56.8
2019-03-17T10:45:45.255Z,56.8
2019-03-17T10:46:35.072Z,56.8
2019-03-17T10:47:25.387Z,56.8
2019-03-17T10:48:15.440Z,56.9
2019-03-17T10:49:05.014Z,56.9
2019-03-17T10:49:55.838Z,56.9
2019-03-17T10:50:53.691Z,56.9
2019-03-17T10:51:35.960Z,56.9
2019-03-17T10:52:25.727Z,57
2019-03-17T10:53:16.074Z,57
2019-03-17T10:54:05.884Z,57
2019-03-17T10:54:55.938Z,57
2019-03-17T10:55:45.984Z,57
2019-03-17T10:56:35.769Z,57.1
2019-03-17T10:57:26.099Z,57.1
2019-03-17T10:58:16.185Z,57.1
2019-03-17T10:59:06.509Z,57.1
2019-03-17T10:59:55.527Z,57.1
2019-03-17T11:00:45.514Z,57.1
2019-03-17T11:01:36.126Z,57.2
2019-03-17T11:02:26.739Z,57.2
2019-03-17T11:03:16.236Z,57.3
2019-03-17T11:04:06.636Z,57.3
2019-03-17T11:04:55.881Z,57.3
2019-03-17T11:05:46.438Z,57.3
2019-03-17T11:06:36.493Z,57.4
2019-03-17T11:07:26.549Z,57.4
2019-03-17T11:08:16.611Z,57.4
2019-03-17T11:09:06.960Z,57.5
2019-03-17T11:09:56.741Z,57.6
2019-03-17T11:10:46.806Z,57.6
2019-03-17T11:11:37.113Z,57.6
2019-03-17T11:12:27.468Z,57.7
2019-03-17T11:13:17.233Z,57.7
2019-03-17T11:14:57.072Z,57.8
2019-03-17T11:15:47.680Z,57.9
2019-03-17T11:16:37.477Z,57.9
2019-03-17T11:17:27.803Z,58
2019-03-17T11:18:17.765Z,58
2019-03-17T11:19:07.930Z,58.1
2019-03-17T11:19:57.718Z,58.1
2019-03-17T11:20:47.494Z,58.1
2019-03-17T11:21:37.551Z,58.2
2019-03-17T11:22:27.052Z,58.2
2019-03-17T11:23:17.970Z,58.3
2019-03-17T11:24:07.775Z,58.3
2019-03-17T11:24:57.915Z,58.3
2019-03-17T11:25:48.142Z,58.3
2019-03-17T11:26:37.705Z,58.4
2019-03-17T11:27:28.546Z,58.4
2019-03-17T11:28:18.692Z,58.4
2019-03-17T11:29:08.459Z,58.4
2019-03-17T11:29:58.164Z,58.4
2019-03-17T11:30:48.564Z,58.4
2019-03-17T11:31:38.287Z,58.4
2019-03-17T11:32:28.984Z,58.4
2019-03-17T11:33:18.382Z,58.5
2019-03-17T11:34:08.508Z,58.5
2019-03-17T11:34:58.517Z,58.5
2019-03-17T11:35:49.142Z,58.5
2019-03-17T11:40:49.233Z,58.6
2019-03-17T11:41:38.997Z,58.6
2019-03-17T11:42:29.690Z,58.6
2019-03-17T11:43:19.426Z,58.7
2019-03-17T11:44:09.556Z,58.7
2019-03-17T11:44:59.509Z,58.7
2019-03-17T11:45:49.886Z,58.8
2019-03-17T11:46:39.077Z,58.7
2019-03-17T11:47:28.938Z,58.8
2019-03-17T11:48:20.028Z,58.8
2019-03-17T11:49:09.540Z,58.8
2019-03-17T11:49:59.336Z,58.8
2019-03-17T11:50:49.664Z,58.8
2019-03-17T11:51:40.336Z,58.9
2019-03-17T11:52:30.320Z,58.9
2019-03-17T11:53:19.856Z,58.9
2019-03-17T11:54:10.181Z,58.9
2019-03-17T11:55:00.356Z,58.9
2019-03-17T11:55:50.348Z,59
2019-03-17T11:56:39.806Z,59
2019-03-17T11:57:29.870Z,59.1
2019-03-17T11:58:20.745Z,59.1
2019-03-17T11:59:11.108Z,59.1
2019-03-17T12:00:00.906Z,59.1
2019-03-17T12:00:50.129Z,59.2
2019-03-17T12:01:39.884Z,59.2
2019-03-17T12:02:30.613Z,59.3
2019-03-17T12:03:20.556Z,59.3
2019-03-17T12:04:10.893Z,59.3
2019-03-17T12:06:32.385Z,59.4
2019-03-17T12:07:22.166Z,59.5
2019-03-17T12:08:12.849Z,59.6
2019-03-17T12:09:05.650Z,59.6
2019-03-17T12:09:54.429Z,59.7
2019-03-17T12:10:42.673Z,59.7
2019-03-17T12:11:32.731Z,59.8
2019-03-17T12:12:23.014Z,59.8
2019-03-17T12:13:12.839Z,59.9
2019-03-17T12:14:02.900Z,59.9
2019-03-17T12:14:52.971Z,59.9
2019-03-17T12:15:43.043Z,59.9
2019-03-17T12:16:32.233Z,60
2019-03-17T12:17:23.379Z,60
2019-03-17T12:18:13.509Z,60.1
2019-03-17T12:19:03.552Z,60.1
2019-03-17T12:19:53.681Z,60.2
2019-03-17T12:20:43.378Z,60.2
2019-03-17T12:21:33.185Z,60.2
2019-03-17T12:22:23.209Z,60.3
2019-03-17T12:23:12.730Z,60.3
2019-03-17T12:24:03.929Z,60.3
2019-03-17T12:24:53.681Z,60.4
2019-03-17T12:25:43.723Z,60.4
2019-03-17T12:26:34.018Z,60.5
2019-03-17T12:27:24.145Z,60.5
2019-03-17T12:28:13.885Z,60.6
2019-03-17T12:29:03.701Z,60.6
2019-03-17T12:29:53.772Z,60.6
2019-03-17T12:30:43.550Z,60.7
2019-03-17T12:31:33.953Z,60.7
2019-03-17T12:32:23.974Z,60.8
2019-03-17T12:33:14.348Z,60.8
2019-03-17T12:34:04.549Z,60.8
2019-03-17T12:34:54.395Z,60.8
2019-03-17T12:35:44.766Z,60.9
2019-03-17T12:36:34.540Z,60.9
2019-03-17T12:37:24.312Z,60.9
2019-03-17T12:38:14.377Z,61
2019-03-17T12:39:04.992Z,61
2019-03-17T12:40:06.853Z,61.1
2019-03-17T12:40:44.264Z,61.1
2019-03-17T12:41:34.324Z,61.1
2019-03-17T12:42:24.690Z,61.1
2019-03-17T12:43:14.726Z,61.2
2019-03-17T12:44:05.065Z,61.2
2019-03-17T12:44:55.131Z,61.2
2019-03-17T12:45:44.905Z,61.3
2019-03-17T12:46:35.237Z,61.3
2019-03-17T12:47:25.014Z,61.3
2019-03-17T12:48:15.364Z,61.3
2019-03-17T12:49:05.151Z,61.3
2019-03-17T12:49:55.497Z,61.3
2019-03-17T12:50:45.277Z,61.3
2019-03-17T12:51:35.871Z,61.3
2019-03-17T12:52:25.659Z,61.4
2019-03-17T12:53:15.474Z,61.4
2019-03-17T12:54:05.588Z,61.4
2019-03-17T12:54:55.824Z,61.4
2019-03-17T12:55:46.202Z,61.4
2019-03-17T12:56:36.283Z,61.4
2019-03-17T12:57:25.753Z,61.5
2019-03-17T12:58:18.632Z,61.5
2019-03-17T12:59:05.903Z,61.5
2019-03-17T12:59:56.216Z,61.5
2019-03-17T13:00:45.710Z,61.6
2019-03-17T13:01:35.504Z,61.6
2019-03-17T13:02:25.558Z,61.6
2019-03-17T13:03:16.716Z,61.6
2019-03-17T13:04:06.558Z,61.6
2019-03-17T13:04:56.268Z,61.6
2019-03-17T13:05:46.643Z,61.6
2019-03-17T13:06:36.438Z,61.7
2019-03-17T13:07:26.457Z,61.7
2019-03-17T13:08:16.813Z,61.7
2019-03-17T13:09:06.613Z,61.7
2019-03-17T13:09:56.946Z,61.8
2019-03-17T13:10:47.070Z,61.8
2019-03-17T13:11:37.050Z,61.8
2019-03-17T13:12:27.410Z,61.8
2019-03-17T13:13:16.906Z,61.8
2019-03-17T13:14:10.087Z,61.8
2019-03-17T13:14:57.293Z,61.9
2019-03-17T13:15:47.345Z,61.8
2019-03-17T13:16:37.420Z,61.9
2019-03-17T13:17:27.476Z,61.9
2019-03-17T13:18:17.528Z,61.9
2019-03-17T13:19:07.343Z,61.9